sensor_id;sensor_type;location;lat;lon;timestamp;pressure;altitude;pressure_sealevel;temperature;humidity
55271;BME280;41132;47.162;9.470;2023-04-22T00:01:28;95898.41;;;13.54;42.85
55271;BME280;41132;47.162;9.470;2023-04-22T00:03:53;95905.63;;;13.46;43.11
55271;BME280;41132;47.162;9.470;2023-04-22T00:06:18;95901.94;;;13.40;42.69
55271;BME280;41132;47.162;9.470;2023-04-22T00:08:44;95904.81;;;13.45;43.14
55271;BME280;41132;47.162;9.470;2023-04-22T00:11:09;95902.03;;;13.32;44.20
55271;BME280;41132;47.162;9.470;2023-04-22T00:13:35;95912.28;;;13.42;43.07
55271;BME280;41132;47.162;9.470;2023-04-22T00:16:04;95883.84;;;13.37;43.68
55271;BME280;41132;47.162;9.470;2023-04-22T00:18:30;95911.28;;;13.43;43.79
55271;BME280;41132;47.162;9.470;2023-04-22T00:20:55;95909.22;;;13.38;43.03
55271;BME280;41132;47.162;9.470;2023-04-22T00:23:20;95906.38;;;13.40;43.24
55271;BME280;41132;47.162;9.470;2023-04-22T00:25:46;95921.75;;;13.57;42.45
55271;BME280;41132;47.162;9.470;2023-04-22T00:28:11;95914.72;;;13.43;44.40
55271;BME280;41132;47.162;9.470;2023-04-22T00:30:37;95914.84;;;13.35;43.18
55271;BME280;41132;47.162;9.470;2023-04-22T00:33:02;95908.75;;;13.34;42.95
55271;BME280;41132;47.162;9.470;2023-04-22T00:35:28;95914.22;;;13.33;43.06
55271;BME280;41132;47.162;9.470;2023-04-22T00:37:53;95925.38;;;13.35;43.76
55271;BME280;41132;47.162;9.470;2023-04-22T00:40:19;95885.56;;;13.08;44.03
55271;BME280;41132;47.162;9.470;2023-04-22T00:42:45;95928.22;;;13.33;43.17
55271;BME280;41132;47.162;9.470;2023-04-22T00:45:11;95935.75;;;13.36;43.78
55271;BME280;41132;47.162;9.470;2023-04-22T00:47:40;95929.09;;;13.41;42.80
55271;BME280;41132;47.162;9.470;2023-04-22T00:50:06;95916.66;;;13.34;43.04
55271;BME280;41132;47.162;9.470;2023-04-22T00:52:32;95911.56;;;13.33;42.62
55271;BME280;41132;47.162;9.470;2023-04-22T00:54:57;95911.16;;;13.29;43.12
55271;BME280;41132;47.162;9.470;2023-04-22T00:57:23;95925.03;;;13.38;42.58
55271;BME280;41132;47.162;9.470;2023-04-22T00:59:48;95914.97;;;13.48;42.52
55271;BME280;41132;47.162;9.470;2023-04-22T01:02:14;95912.41;;;13.33;43.42
55271;BME280;41132;47.162;9.470;2023-04-22T01:04:40;95918.31;;;13.35;43.01
55271;BME280;41132;47.162;9.470;2023-04-22T01:07:06;95916.78;;;13.26;43.90
55271;BME280;41132;47.162;9.470;2023-04-22T01:09:32;95896.34;;;13.13;43.14
55271;BME280;41132;47.162;9.470;2023-04-22T01:11:57;95875.13;;;13.00;43.27
55271;BME280;41132;47.162;9.470;2023-04-22T01:14:23;95908.50;;;13.14;43.83
55271;BME280;41132;47.162;9.470;2023-04-22T01:16:49;95911.94;;;13.30;43.17
55271;BME280;41132;47.162;9.470;2023-04-22T01:19:15;95929.66;;;13.36;42.79
55271;BME280;41132;47.162;9.470;2023-04-22T01:21:41;95899.97;;;13.12;45.15
55271;BME280;41132;47.162;9.470;2023-04-22T01:24:09;95925.59;;;13.33;43.23
55271;BME280;41132;47.162;9.470;2023-04-22T01:26:35;95917.56;;;13.27;42.82
55271;BME280;41132;47.162;9.470;2023-04-22T01:29:01;95881.50;;;13.06;43.53
55271;BME280;41132;47.162;9.470;2023-04-22T01:31:27;95916.56;;;12.91;46.64
55271;BME280;41132;47.162;9.470;2023-04-22T01:33:53;95916.78;;;12.75;47.33
55271;BME280;41132;47.162;9.470;2023-04-22T01:36:19;95922.31;;;12.65;47.61
55271;BME280;41132;47.162;9.470;2023-04-22T01:38:45;95922.69;;;12.47;48.88
55271;BME280;41132;47.162;9.470;2023-04-22T01:41:12;95926.38;;;12.53;47.59
55271;BME280;41132;47.162;9.470;2023-04-22T01:43:37;95927.13;;;12.47;48.43
55271;BME280;41132;47.162;9.470;2023-04-22T01:46:04;95935.03;;;12.47;48.79
55271;BME280;41132;47.162;9.470;2023-04-22T01:48:30;95926.03;;;12.26;49.76
55271;BME280;41132;47.162;9.470;2023-04-22T01:50:55;95920.88;;;12.63;45.20
55271;BME280;41132;47.162;9.470;2023-04-22T01:53:21;95911.50;;;12.60;46.09
55271;BME280;41132;47.162;9.470;2023-04-22T01:55:46;95943.44;;;12.87;45.03
55271;BME280;41132;47.162;9.470;2023-04-22T01:58:11;95923.63;;;13.06;44.03
55271;BME280;41132;47.162;9.470;2023-04-22T02:00:37;95917.50;;;13.20;43.18
55271;BME280;41132;47.162;9.470;2023-04-22T02:03:02;95890.94;;;12.85;43.97
55271;BME280;41132;47.162;9.470;2023-04-22T02:05:28;95920.28;;;12.82;45.40
55271;BME280;41132;47.162;9.470;2023-04-22T02:07:53;95942.09;;;12.76;47.38
55271;BME280;41132;47.162;9.470;2023-04-22T02:10:19;95940.44;;;12.60;48.53
55271;BME280;41132;47.162;9.470;2023-04-22T02:12:45;95924.47;;;12.32;49.01
55271;BME280;41132;47.162;9.470;2023-04-22T02:15:10;95935.56;;;12.27;49.32
55271;BME280;41132;47.162;9.470;2023-04-22T02:17:36;95906.84;;;12.03;49.99
55271;BME280;41132;47.162;9.470;2023-04-22T02:20:03;95931.91;;;12.14;49.58
55271;BME280;41132;47.162;9.470;2023-04-22T02:22:30;95946.69;;;12.15;50.33
55271;BME280;41132;47.162;9.470;2023-04-22T02:24:55;95890.44;;;11.78;50.24
55271;BME280;41132;47.162;9.470;2023-04-22T02:27:21;95939.06;;;12.05;51.01
55271;BME280;41132;47.162;9.470;2023-04-22T02:29:46;95926.38;;;11.85;52.83
55271;BME280;41132;47.162;9.470;2023-04-22T02:32:12;95949.28;;;11.77;52.48
55271;BME280;41132;47.162;9.470;2023-04-22T02:34:37;95934.22;;;11.70;53.76
55271;BME280;41132;47.162;9.470;2023-04-22T02:37:03;95945.41;;;11.64;54.25
55271;BME280;41132;47.162;9.470;2023-04-22T02:39:28;95940.41;;;11.55;54.48
55271;BME280;41132;47.162;9.470;2023-04-22T02:41:54;95935.50;;;11.52;55.22
55271;BME280;41132;47.162;9.470;2023-04-22T02:44:19;95915.44;;;11.36;54.72
55271;BME280;41132;47.162;9.470;2023-04-22T02:46:44;95951.56;;;11.57;53.89
55271;BME280;41132;47.162;9.470;2023-04-22T02:49:10;95949.31;;;11.54;53.34
55271;BME280;41132;47.162;9.470;2023-04-22T02:51:37;95943.72;;;11.48;53.66
55271;BME280;41132;47.162;9.470;2023-04-22T02:54:03;95951.94;;;11.54;54.68
55271;BME280;41132;47.162;9.470;2023-04-22T02:56:28;95905.22;;;11.10;56.55
55271;BME280;41132;47.162;9.470;2023-04-22T02:58:54;95926.19;;;11.18;55.08
55271;BME280;41132;47.162;9.470;2023-04-22T03:01:19;95931.06;;;11.29;54.35
55271;BME280;41132;47.162;9.470;2023-04-22T03:03:44;95930.66;;;11.17;56.03
55271;BME280;41132;47.162;9.470;2023-04-22T03:06:10;95947.50;;;11.23;56.35
55271;BME280;41132;47.162;9.470;2023-04-22T03:08:35;95928.34;;;11.14;55.27
55271;BME280;41132;47.162;9.470;2023-04-22T03:11:01;95955.88;;;11.26;55.24
55271;BME280;41132;47.162;9.470;2023-04-22T03:13:26;95919.38;;;11.08;55.77
55271;BME280;41132;47.162;9.470;2023-04-22T03:15:51;95921.88;;;10.94;57.11
55271;BME280;41132;47.162;9.470;2023-04-22T03:18:17;95953.16;;;11.12;56.42
55271;BME280;41132;47.162;9.470;2023-04-22T03:20:42;95960.38;;;11.10;56.81
55271;BME280;41132;47.162;9.470;2023-04-22T03:23:08;95912.94;;;10.80;56.49
55271;BME280;41132;47.162;9.470;2023-04-22T03:25:34;95921.31;;;10.83;56.62
55271;BME280;41132;47.162;9.470;2023-04-22T03:28:01;95959.56;;;11.09;57.31
55271;BME280;41132;47.162;9.470;2023-04-22T03:30:26;95952.88;;;10.98;58.21
55271;BME280;41132;47.162;9.470;2023-04-22T03:32:51;95937.47;;;10.95;57.97
55271;BME280;41132;47.162;9.470;2023-04-22T03:35:18;95935.78;;;11.11;55.73
55271;BME280;41132;47.162;9.470;2023-04-22T03:37:44;95939.25;;;11.03;56.63
55271;BME280;41132;47.162;9.470;2023-04-22T03:40:10;95955.94;;;11.10;57.39
55271;BME280;41132;47.162;9.470;2023-04-22T03:42:35;95949.59;;;10.96;58.64
55271;BME280;41132;47.162;9.470;2023-04-22T03:45:00;95943.75;;;10.86;60.04
55271;BME280;41132;47.162;9.470;2023-04-22T03:47:26;95954.44;;;10.76;60.84
55271;BME280;41132;47.162;9.470;2023-04-22T03:49:51;95929.63;;;10.48;60.66
55271;BME280;41132;47.162;9.470;2023-04-22T03:52:16;95917.84;;;10.27;61.50
55271;BME280;41132;47.162;9.470;2023-04-22T03:54:42;95919.81;;;10.41;58.68
55271;BME280;41132;47.162;9.470;2023-04-22T03:57:07;95957.25;;;10.75;60.19
55271;BME280;41132;47.162;9.470;2023-04-22T03:59:33;95897.69;;;10.28;61.04
55271;BME280;41132;47.162;9.470;2023-04-22T04:01:58;95972.72;;;10.53;63.70
55271;BME280;41132;47.162;9.470;2023-04-22T04:04:23;95958.78;;;10.53;62.80
55271;BME280;41132;47.162;9.470;2023-04-22T04:06:49;95926.06;;;10.16;65.06
55271;BME280;41132;47.162;9.470;2023-04-22T04:09:14;95957.69;;;10.14;66.65
55271;BME280;41132;47.162;9.470;2023-04-22T04:11:40;95976.53;;;10.34;63.13
55271;BME280;41132;47.162;9.470;2023-04-22T04:14:05;95962.44;;;10.35;63.15
55271;BME280;41132;47.162;9.470;2023-04-22T04:16:30;95958.03;;;10.36;62.49
55271;BME280;41132;47.162;9.470;2023-04-22T04:18:56;95957.53;;;10.32;64.66
55271;BME280;41132;47.162;9.470;2023-04-22T04:21:21;95958.03;;;10.36;63.16
55271;BME280;41132;47.162;9.470;2023-04-22T04:23:46;95969.94;;;10.47;61.84
55271;BME280;41132;47.162;9.470;2023-04-22T04:26:12;95978.47;;;10.49;60.92
55271;BME280;41132;47.162;9.470;2023-04-22T04:28:39;95967.03;;;10.41;61.96
55271;BME280;41132;47.162;9.470;2023-04-22T04:31:05;95956.84;;;10.47;63.10
55271;BME280;41132;47.162;9.470;2023-04-22T04:33:31;95948.81;;;10.40;61.19
55271;BME280;41132;47.162;9.470;2023-04-22T04:35:57;95969.50;;;10.43;63.98
55271;BME280;41132;47.162;9.470;2023-04-22T04:38:23;95967.50;;;10.45;61.87
55271;BME280;41132;47.162;9.470;2023-04-22T04:40:50;95964.84;;;10.53;64.68
55271;BME280;41132;47.162;9.470;2023-04-22T04:43:15;95976.34;;;10.44;62.12
55271;BME280;41132;47.162;9.470;2023-04-22T04:45:41;95983.88;;;10.55;61.63
55271;BME280;41132;47.162;9.470;2023-04-22T04:48:11;95975.53;;;10.43;62.12
55271;BME280;41132;47.162;9.470;2023-04-22T04:50:37;95971.63;;;10.39;61.56
55271;BME280;41132;47.162;9.470;2023-04-22T04:53:02;95968.63;;;10.51;60.56
55271;BME280;41132;47.162;9.470;2023-04-22T04:55:28;95962.91;;;10.47;58.75
55271;BME280;41132;47.162;9.470;2023-04-22T04:57:53;95976.00;;;10.55;63.42
55271;BME280;41132;47.162;9.470;2023-04-22T05:00:18;95984.06;;;10.54;60.51
55271;BME280;41132;47.162;9.470;2023-04-22T05:02:44;95972.25;;;10.50;61.64
55271;BME280;41132;47.162;9.470;2023-04-22T05:05:09;95979.47;;;10.39;63.92
55271;BME280;41132;47.162;9.470;2023-04-22T05:07:35;95987.03;;;10.42;63.51
55271;BME280;41132;47.162;9.470;2023-04-22T05:10:01;95952.94;;;10.18;61.86
55271;BME280;41132;47.162;9.470;2023-04-22T05:12:27;95986.84;;;10.44;60.79
55271;BME280;41132;47.162;9.470;2023-04-22T05:14:55;95988.66;;;10.52;64.03
55271;BME280;41132;47.162;9.470;2023-04-22T05:17:20;95989.81;;;10.41;68.14
55271;BME280;41132;47.162;9.470;2023-04-22T05:19:46;96001.44;;;10.47;65.92
55271;BME280;41132;47.162;9.470;2023-04-22T05:22:11;95968.34;;;10.37;64.11
55271;BME280;41132;47.162;9.470;2023-04-22T05:24:37;95998.00;;;10.21;67.24
55271;BME280;41132;47.162;9.470;2023-04-22T05:27:02;96001.28;;;10.23;66.95
55271;BME280;41132;47.162;9.470;2023-04-22T05:29:27;95977.34;;;10.35;64.54
55271;BME280;41132;47.162;9.470;2023-04-22T05:31:53;95989.47;;;10.52;67.15
55271;BME280;41132;47.162;9.470;2023-04-22T05:34:18;96006.47;;;10.64;67.39
55271;BME280;41132;47.162;9.470;2023-04-22T05:36:44;95989.72;;;10.74;64.73
55271;BME280;41132;47.162;9.470;2023-04-22T05:39:09;95970.38;;;10.75;62.52
55271;BME280;41132;47.162;9.470;2023-04-22T05:41:34;96010.94;;;11.12;61.26
55271;BME280;41132;47.162;9.470;2023-04-22T05:44:00;95990.28;;;11.08;59.97
55271;BME280;41132;47.162;9.470;2023-04-22T05:46:25;95982.97;;;11.19;60.44
55271;BME280;41132;47.162;9.470;2023-04-22T05:48:51;95996.50;;;11.39;61.67
55271;BME280;41132;47.162;9.470;2023-04-22T05:51:17;95961.59;;;11.30;61.54
55271;BME280;41132;47.162;9.470;2023-04-22T05:53:42;95972.22;;;11.37;65.21
55271;BME280;41132;47.162;9.470;2023-04-22T05:56:07;95996.25;;;11.57;64.17
55271;BME280;41132;47.162;9.470;2023-04-22T05:58:33;95992.03;;;11.70;55.59
55271;BME280;41132;47.162;9.470;2023-04-22T06:00:58;95998.34;;;11.93;54.83
55271;BME280;41132;47.162;9.470;2023-04-22T06:03:24;96013.06;;;12.02;56.74
55271;BME280;41132;47.162;9.470;2023-04-22T06:05:49;96003.22;;;12.19;57.22
55271;BME280;41132;47.162;9.470;2023-04-22T06:08:14;96012.53;;;12.06;56.57
55271;BME280;41132;47.162;9.470;2023-04-22T06:10:40;95994.94;;;12.07;56.02
55271;BME280;41132;47.162;9.470;2023-04-22T06:13:05;96015.13;;;12.29;55.73
55271;BME280;41132;47.162;9.470;2023-04-22T06:15:33;95996.53;;;12.31;55.53
55271;BME280;41132;47.162;9.470;2023-04-22T06:17:58;96029.47;;;12.42;53.68
55271;BME280;41132;47.162;9.470;2023-04-22T06:20:23;96009.06;;;12.44;53.52
55271;BME280;41132;47.162;9.470;2023-04-22T06:22:50;96031.28;;;12.26;54.51
55271;BME280;41132;47.162;9.470;2023-04-22T06:25:15;96027.16;;;12.24;56.34
55271;BME280;41132;47.162;9.470;2023-04-22T06:27:41;96004.22;;;12.32;57.97
55271;BME280;41132;47.162;9.470;2023-04-22T06:30:06;96016.19;;;12.58;57.12
55271;BME280;41132;47.162;9.470;2023-04-22T06:32:33;96027.06;;;12.55;54.35
55271;BME280;41132;47.162;9.470;2023-04-22T06:34:58;96008.53;;;12.48;53.49
55271;BME280;41132;47.162;9.470;2023-04-22T06:37:24;96015.72;;;12.84;54.66
55271;BME280;41132;47.162;9.470;2023-04-22T06:39:51;96024.34;;;13.08;54.90
55271;BME280;41132;47.162;9.470;2023-04-22T06:42:16;96006.06;;;13.21;57.38
55271;BME280;41132;47.162;9.470;2023-04-22T06:44:42;96019.91;;;13.38;57.92
55271;BME280;41132;47.162;9.470;2023-04-22T06:47:07;96031.28;;;13.75;56.93
55271;BME280;41132;47.162;9.470;2023-04-22T06:49:32;96004.28;;;13.94;55.60
55271;BME280;41132;47.162;9.470;2023-04-22T06:51:59;96015.91;;;14.00;53.67
55271;BME280;41132;47.162;9.470;2023-04-22T06:54:25;96004.66;;;14.41;53.69
55271;BME280;41132;47.162;9.470;2023-04-22T06:56:50;95994.78;;;14.22;52.32
55271;BME280;41132;47.162;9.470;2023-04-22T06:59:16;95987.34;;;14.32;53.54
55271;BME280;41132;47.162;9.470;2023-04-22T07:01:41;96018.03;;;14.39;52.35
55271;BME280;41132;47.162;9.470;2023-04-22T07:04:06;96010.41;;;14.45;52.68
55271;BME280;41132;47.162;9.470;2023-04-22T07:06:32;96005.47;;;14.41;49.96
55271;BME280;41132;47.162;9.470;2023-04-22T07:08:57;96016.50;;;14.73;49.78
55271;BME280;41132;47.162;9.470;2023-04-22T07:11:22;95975.84;;;14.68;51.76
55271;BME280;41132;47.162;9.470;2023-04-22T07:13:48;96000.97;;;15.33;48.11
55271;BME280;41132;47.162;9.470;2023-04-22T07:16:13;95999.13;;;15.95;49.74
55271;BME280;41132;47.162;9.470;2023-04-22T07:18:38;95993.88;;;16.35;47.24
55271;BME280;41132;47.162;9.470;2023-04-22T07:21:04;96000.34;;;16.99;45.44
55271;BME280;41132;47.162;9.470;2023-04-22T07:23:29;95990.19;;;17.86;44.95
55271;BME280;41132;47.162;9.470;2023-04-22T07:25:55;95998.38;;;18.67;44.29
55271;BME280;41132;47.162;9.470;2023-04-22T07:28:20;95978.63;;;19.18;41.76
55271;BME280;41132;47.162;9.470;2023-04-22T07:30:46;95981.53;;;19.35;40.97
55271;BME280;41132;47.162;9.470;2023-04-22T07:33:11;95985.81;;;20.27;39.69
55271;BME280;41132;47.162;9.470;2023-04-22T07:35:36;95986.06;;;20.49;38.61
55271;BME280;41132;47.162;9.470;2023-04-22T07:38:02;95989.56;;;20.96;39.47
55271;BME280;41132;47.162;9.470;2023-04-22T07:40:27;95976.34;;;21.01;36.95
55271;BME280;41132;47.162;9.470;2023-04-22T07:42:53;95971.16;;;21.47;38.17
55271;BME280;41132;47.162;9.470;2023-04-22T07:45:18;95960.91;;;20.44;37.79
55271;BME280;41132;47.162;9.470;2023-04-22T07:47:44;95990.81;;;20.47;37.94
55271;BME280;41132;47.162;9.470;2023-04-22T07:50:10;95973.28;;;20.39;37.48
55271;BME280;41132;47.162;9.470;2023-04-22T07:52:36;95981.31;;;21.62;38.39
55271;BME280;41132;47.162;9.470;2023-04-22T07:55:01;95972.06;;;21.81;36.94
55271;BME280;41132;47.162;9.470;2023-04-22T07:57:27;95976.84;;;22.25;35.92
55271;BME280;41132;47.162;9.470;2023-04-22T07:59:52;95971.50;;;22.59;37.42
55271;BME280;41132;47.162;9.470;2023-04-22T08:02:18;95969.16;;;23.40;35.45
55271;BME280;41132;47.162;9.470;2023-04-22T08:04:43;95950.59;;;23.11;33.11
55271;BME280;41132;47.162;9.470;2023-04-22T08:07:09;95948.91;;;23.49;31.67
55271;BME280;41132;47.162;9.470;2023-04-22T08:09:34;95945.59;;;23.64;33.02
55271;BME280;41132;47.162;9.470;2023-04-22T08:11:59;95935.53;;;23.99;31.63
55271;BME280;41132;47.162;9.470;2023-04-22T08:14:25;95957.28;;;24.72;30.27
55271;BME280;41132;47.162;9.470;2023-04-22T08:16:51;95960.19;;;24.65;32.49
55271;BME280;41132;47.162;9.470;2023-04-22T08:19:17;95937.41;;;24.30;30.66
55271;BME280;41132;47.162;9.470;2023-04-22T08:21:43;95943.91;;;24.39;31.70
55271;BME280;41132;47.162;9.470;2023-04-22T08:24:09;95936.72;;;24.13;31.58
55271;BME280;41132;47.162;9.470;2023-04-22T08:26:35;95945.09;;;24.96;33.50
55271;BME280;41132;47.162;9.470;2023-04-22T08:29:02;95941.09;;;24.24;32.88
55271;BME280;41132;47.162;9.470;2023-04-22T08:31:28;95942.00;;;23.75;32.63
55271;BME280;41132;47.162;9.470;2023-04-22T08:33:54;95921.09;;;24.05;32.28
55271;BME280;41132;47.162;9.470;2023-04-22T08:36:19;95934.28;;;24.11;32.84
55271;BME280;41132;47.162;9.470;2023-04-22T08:38:47;95937.59;;;24.56;33.21
55271;BME280;41132;47.162;9.470;2023-04-22T08:41:13;95929.59;;;24.66;31.53
55271;BME280;41132;47.162;9.470;2023-04-22T08:43:40;95925.41;;;24.80;30.33
55271;BME280;41132;47.162;9.470;2023-04-22T08:46:05;95913.13;;;24.90;31.58
55271;BME280;41132;47.162;9.470;2023-04-22T08:48:31;95928.47;;;24.99;30.34
55271;BME280;41132;47.162;9.470;2023-04-22T08:50:56;95919.69;;;25.14;31.66
55271;BME280;41132;47.162;9.470;2023-04-22T08:53:22;95911.50;;;24.89;28.23
55271;BME280;41132;47.162;9.470;2023-04-22T08:55:48;95902.22;;;23.89;29.80
55271;BME280;41132;47.162;9.470;2023-04-22T08:58:14;95906.50;;;24.23;30.01
55271;BME280;41132;47.162;9.470;2023-04-22T09:00:42;95869.91;;;24.44;32.37
55271;BME280;41132;47.162;9.470;2023-04-22T09:03:08;95892.72;;;24.89;30.35
55271;BME280;41132;47.162;9.470;2023-04-22T09:05:36;95887.69;;;25.91;31.31
55271;BME280;41132;47.162;9.470;2023-04-22T09:08:02;95873.94;;;25.72;30.33
55271;BME280;41132;47.162;9.470;2023-04-22T09:10:28;95901.38;;;25.84;28.63
55271;BME280;41132;47.162;9.470;2023-04-22T09:12:55;95896.81;;;25.80;29.00
55271;BME280;41132;47.162;9.470;2023-04-22T09:15:21;95893.53;;;25.57;29.16
55271;BME280;41132;47.162;9.470;2023-04-22T09:17:46;95889.66;;;25.23;31.00
55271;BME280;41132;47.162;9.470;2023-04-22T09:20:14;95881.56;;;25.17;27.24
55271;BME280;41132;47.162;9.470;2023-04-22T09:22:44;95887.81;;;25.33;28.48
55271;BME280;41132;47.162;9.470;2023-04-22T09:25:23;95870.75;;;26.01;27.73
55271;BME280;41132;47.162;9.470;2023-04-22T09:27:53;95880.16;;;25.93;28.43
55271;BME280;41132;47.162;9.470;2023-04-22T09:30:30;95882.84;;;26.09;29.02
55271;BME280;41132;47.162;9.470;2023-04-22T09:32:57;95869.31;;;26.80;27.85
55271;BME280;41132;47.162;9.470;2023-04-22T09:35:35;95862.06;;;26.76;29.08
55271;BME280;41132;47.162;9.470;2023-04-22T09:38:02;95868.50;;;26.75;25.67
55271;BME280;41132;47.162;9.470;2023-04-22T09:40:29;95876.88;;;26.78;28.41
55271;BME280;41132;47.162;9.470;2023-04-22T09:42:56;95865.34;;;26.62;26.47
55271;BME280;41132;47.162;9.470;2023-04-22T09:45:34;95860.53;;;26.08;28.22
55271;BME280;41132;47.162;9.470;2023-04-22T09:48:11;95856.72;;;26.60;27.71
55271;BME280;41132;47.162;9.470;2023-04-22T09:50:40;95853.75;;;26.67;26.81
55271;BME280;41132;47.162;9.470;2023-04-22T09:53:09;95848.03;;;26.84;30.44
55271;BME280;41132;47.162;9.470;2023-04-22T09:55:38;95841.47;;;26.10;27.47
55271;BME280;41132;47.162;9.470;2023-04-22T09:58:09;95820.19;;;26.29;29.22
55271;BME280;41132;47.162;9.470;2023-04-22T10:00:39;95833.63;;;26.13;27.07
55271;BME280;41132;47.162;9.470;2023-04-22T10:03:05;95837.38;;;25.87;26.07
55271;BME280;41132;47.162;9.470;2023-04-22T10:05:31;95829.31;;;25.81;26.67
55271;BME280;41132;47.162;9.470;2023-04-22T10:08:06;95845.22;;;26.19;26.79
55271;BME280;41132;47.162;9.470;2023-04-22T10:10:32;95835.75;;;26.42;26.02
55271;BME280;41132;47.162;9.470;2023-04-22T10:12:58;95837.34;;;26.43;26.39
55271;BME280;41132;47.162;9.470;2023-04-22T10:15:24;95838.69;;;26.45;27.40
55271;BME280;41132;47.162;9.470;2023-04-22T10:17:52;95828.22;;;26.34;27.12
55271;BME280;41132;47.162;9.470;2023-04-22T10:20:19;95830.63;;;26.51;28.44
55271;BME280;41132;47.162;9.470;2023-04-22T10:22:46;95833.56;;;26.70;26.19
55271;BME280;41132;47.162;9.470;2023-04-22T10:25:22;95828.91;;;26.85;26.64
55271;BME280;41132;47.162;9.470;2023-04-22T10:28:08;95834.72;;;27.13;28.29
55271;BME280;41132;47.162;9.470;2023-04-22T10:30:38;95828.97;;;26.70;28.97
55271;BME280;41132;47.162;9.470;2023-04-22T10:41:14;95825.28;;;25.48;27.24
55271;BME280;41132;47.162;9.470;2023-04-22T10:43:48;95812.56;;;25.13;31.00
55271;BME280;41132;47.162;9.470;2023-04-22T10:49:22;95809.19;;;24.22;28.27
55271;BME280;41132;47.162;9.470;2023-04-22T10:51:58;95806.56;;;23.63;28.94
55271;BME280;41132;47.162;9.470;2023-04-22T10:57:00;95794.88;;;23.74;29.18
55271;BME280;41132;47.162;9.470;2023-04-22T10:59:48;95795.47;;;23.49;30.52
55271;BME280;41132;47.162;9.470;2023-04-22T11:02:14;95792.22;;;23.14;32.01
55271;BME280;41132;47.162;9.470;2023-04-22T11:04:47;95799.97;;;23.16;29.38
55271;BME280;41132;47.162;9.470;2023-04-22T11:15:29;95808.06;;;22.16;28.45
55271;BME280;41132;47.162;9.470;2023-04-22T11:17:55;95799.19;;;21.94;30.19
55271;BME280;41132;47.162;9.470;2023-04-22T11:20:21;95795.22;;;21.96;29.50
55271;BME280;41132;47.162;9.470;2023-04-22T11:22:54;95744.75;;;21.61;30.85
55271;BME280;41132;47.162;9.470;2023-04-22T11:25:21;95761.41;;;21.68;29.75
55271;BME280;41132;47.162;9.470;2023-04-22T11:27:47;95803.47;;;21.78;29.00
55271;BME280;41132;47.162;9.470;2023-04-22T11:30:17;95776.88;;;21.83;30.58
55271;BME280;41132;47.162;9.470;2023-04-22T11:32:46;95786.56;;;22.06;32.79
55271;BME280;41132;47.162;9.470;2023-04-22T11:35:17;95799.09;;;21.88;31.93
55271;BME280;41132;47.162;9.470;2023-04-22T11:37:51;95787.75;;;21.98;31.69
55271;BME280;41132;47.162;9.470;2023-04-22T11:40:19;95782.50;;;22.03;32.46
55271;BME280;41132;47.162;9.470;2023-04-22T11:42:46;95795.59;;;22.05;32.04
55271;BME280;41132;47.162;9.470;2023-04-22T11:45:12;95790.94;;;21.78;33.62
55271;BME280;41132;47.162;9.470;2023-04-22T11:47:38;95782.19;;;21.66;33.99
55271;BME280;41132;47.162;9.470;2023-04-22T11:50:06;95787.78;;;21.47;34.71
55271;BME280;41132;47.162;9.470;2023-04-22T11:53:16;95765.56;;;21.30;33.81
55271;BME280;41132;47.162;9.470;2023-04-22T11:55:43;95774.03;;;21.56;34.20
55271;BME280;41132;47.162;9.470;2023-04-22T11:58:12;95783.59;;;21.52;32.37
55271;BME280;41132;47.162;9.470;2023-04-22T12:00:44;95780.97;;;21.57;32.13
55271;BME280;41132;47.162;9.470;2023-04-22T12:05:41;95789.56;;;21.42;31.18
55271;BME280;41132;47.162;9.470;2023-04-22T12:08:15;95777.81;;;21.43;31.85
55271;BME280;41132;47.162;9.470;2023-04-22T12:10:47;95763.09;;;21.40;32.70
55271;BME280;41132;47.162;9.470;2023-04-22T12:13:22;95775.63;;;21.40;31.25
55271;BME280;41132;47.162;9.470;2023-04-22T12:15:51;95772.44;;;21.26;33.92
55271;BME280;41132;47.162;9.470;2023-04-22T12:18:33;95778.47;;;21.04;36.20
55271;BME280;41132;47.162;9.470;2023-04-22T12:23:28;95771.97;;;21.29;40.07
55271;BME280;41132;47.162;9.470;2023-04-22T12:25:53;95772.75;;;21.30;39.69
55271;BME280;41132;47.162;9.470;2023-04-22T12:28:19;95769.69;;;21.21;40.02
55271;BME280;41132;47.162;9.470;2023-04-22T12:30:45;95763.38;;;21.10;40.42
55271;BME280;41132;47.162;9.470;2023-04-22T12:33:10;95775.72;;;20.99;39.79
55271;BME280;41132;47.162;9.470;2023-04-22T12:35:36;95770.00;;;20.79;39.15
55271;BME280;41132;47.162;9.470;2023-04-22T12:38:01;95772.38;;;20.52;40.95
55271;BME280;41132;47.162;9.470;2023-04-22T12:40:27;95755.38;;;20.29;40.81
55271;BME280;41132;47.162;9.470;2023-04-22T12:42:53;95765.44;;;20.39;41.29
55271;BME280;41132;47.162;9.470;2023-04-22T12:45:18;95768.09;;;20.39;42.12
55271;BME280;41132;47.162;9.470;2023-04-22T12:47:44;95766.38;;;20.44;41.03
55271;BME280;41132;47.162;9.470;2023-04-22T12:50:10;95749.25;;;20.29;39.60
55271;BME280;41132;47.162;9.470;2023-04-22T12:52:36;95741.84;;;20.31;40.43
55271;BME280;41132;47.162;9.470;2023-04-22T12:55:01;95771.34;;;20.41;42.31
55271;BME280;41132;47.162;9.470;2023-04-22T12:57:27;95752.69;;;20.41;41.75
55271;BME280;41132;47.162;9.470;2023-04-22T12:59:52;95770.13;;;20.72;45.18
55271;BME280;41132;47.162;9.470;2023-04-22T13:02:17;95756.16;;;20.53;43.49
55271;BME280;41132;47.162;9.470;2023-04-22T13:04:43;95741.31;;;20.45;42.74
55271;BME280;41132;47.162;9.470;2023-04-22T13:07:09;95776.53;;;20.59;44.26
55271;BME280;41132;47.162;9.470;2023-04-22T13:09:35;95781.88;;;20.48;42.63
55271;BME280;41132;47.162;9.470;2023-04-22T13:12:00;95772.72;;;20.55;42.39
55271;BME280;41132;47.162;9.470;2023-04-22T13:14:27;95771.19;;;20.71;45.22
55271;BME280;41132;47.162;9.470;2023-04-22T13:16:52;95769.59;;;20.58;46.08
55271;BME280;41132;47.162;9.470;2023-04-22T13:19:18;95746.63;;;20.57;47.04
55271;BME280;41132;47.162;9.470;2023-04-22T13:21:44;95765.88;;;20.71;48.33
55271;BME280;41132;47.162;9.470;2023-04-22T13:24:10;95755.22;;;20.48;47.32